BBS weather

Blackbushe Airport
Yateley, England, United Kingdom

Public forecast

Using degrees Celsius for public forecast. Weather courtesy of forecast.io.

METAR (pilot weather report)

Closest report is Farnborough Airport, 3.9 nm (7.3 km) SE. Retrieved 2018/09/24 08:50 UTC (16 minutes ago):

EGLF 240850Z 32006KT 290V350 CAVOK 10/06 Q1038

TAF (pilot weather forecast)

Forecast is more than 12 hours old.

Closest forecast is Farnborough Airport, 3.9 nm (7.3 km) SE. Retrieved 2016/04/18 18:00 UTC (2 years ago):

TAF EGLF 181658Z 1818/1821 26008KT 9999 BKN040